sensor_id;sensor_type;location;lat;lon;timestamp;P1;durP1;ratioP1;P2;durP2;ratioP2
10721;SDS011;5412;59.450;18.124;2022-09-12T00:01:51;6.28;;;3.70;;
10721;SDS011;5412;59.450;18.124;2022-09-12T00:04:17;5.75;;;4.10;;
10721;SDS011;5412;59.450;18.124;2022-09-12T00:06:42;5.82;;;4.07;;
10721;SDS011;5412;59.450;18.124;2022-09-12T00:09:09;4.63;;;3.75;;
10721;SDS011;5412;59.450;18.124;2022-09-12T00:11:38;6.00;;;3.60;;
10721;SDS011;5412;59.450;18.124;2022-09-12T00:14:06;4.00;;;3.60;;
10721;SDS011;5412;59.450;18.124;2022-09-12T00:16:33;4.68;;;4.10;;
10721;SDS011;5412;59.450;18.124;2022-09-12T00:19:00;7.07;;;3.97;;
10721;SDS011;5412;59.450;18.124;2022-09-12T00:21:27;7.22;;;3.63;;
10721;SDS011;5412;59.450;18.124;2022-09-12T00:23:54;5.78;;;4.20;;
10721;SDS011;5412;59.450;18.124;2022-09-12T00:26:20;4.72;;;3.83;;
10721;SDS011;5412;59.450;18.124;2022-09-12T00:28:46;6.25;;;3.50;;
10721;SDS011;5412;59.450;18.124;2022-09-12T00:31:14;7.47;;;4.05;;
10721;SDS011;5412;59.450;18.124;2022-09-12T00:33:45;6.00;;;3.90;;
10721;SDS011;5412;59.450;18.124;2022-09-12T00:36:12;4.40;;;3.80;;
10721;SDS011;5412;59.450;18.124;2022-09-12T00:38:43;4.97;;;3.90;;
10721;SDS011;5412;59.450;18.124;2022-09-12T00:43:47;5.85;;;4.53;;
10721;SDS011;5412;59.450;18.124;2022-09-12T00:48:45;10.18;;;4.68;;
10721;SDS011;5412;59.450;18.124;2022-09-12T00:51:15;4.97;;;4.18;;
10721;SDS011;5412;59.450;18.124;2022-09-12T00:53:42;6.35;;;4.35;;
10721;SDS011;5412;59.450;18.124;2022-09-12T00:56:10;7.68;;;4.30;;
10721;SDS011;5412;59.450;18.124;2022-09-12T00:58:42;8.15;;;4.45;;
10721;SDS011;5412;59.450;18.124;2022-09-12T01:01:15;7.07;;;4.32;;
10721;SDS011;5412;59.450;18.124;2022-09-12T01:03:41;5.18;;;4.53;;
10721;SDS011;5412;59.450;18.124;2022-09-12T01:08:42;7.85;;;3.97;;
10721;SDS011;5412;59.450;18.124;2022-09-12T01:11:08;6.68;;;4.43;;
10721;SDS011;5412;59.450;18.124;2022-09-12T01:13:36;7.10;;;4.68;;
10721;SDS011;5412;59.450;18.124;2022-09-12T01:16:03;6.53;;;4.57;;
10721;SDS011;5412;59.450;18.124;2022-09-12T01:33:01;6.10;;;4.72;;
10721;SDS011;5412;59.450;18.124;2022-09-12T01:41:10;5.47;;;4.88;;
10721;SDS011;5412;59.450;18.124;2022-09-12T01:49:14;7.20;;;4.90;;
10721;SDS011;5412;59.450;18.124;2022-09-12T01:51:58;6.15;;;4.60;;
10721;SDS011;5412;59.450;18.124;2022-09-12T01:54:37;7.38;;;5.55;;
10721;SDS011;5412;59.450;18.124;2022-09-12T01:57:12;7.85;;;4.70;;
10721;SDS011;5412;59.450;18.124;2022-09-12T02:00:08;7.30;;;4.47;;
10721;SDS011;5412;59.450;18.124;2022-09-12T02:02:56;7.57;;;4.63;;
10721;SDS011;5412;59.450;18.124;2022-09-12T02:05:27;6.70;;;4.50;;
10721;SDS011;5412;59.450;18.124;2022-09-12T02:08:06;4.78;;;4.07;;
10721;SDS011;5412;59.450;18.124;2022-09-12T02:10:33;9.35;;;4.57;;
10721;SDS011;5412;59.450;18.124;2022-09-12T02:13:12;6.90;;;5.00;;
10721;SDS011;5412;59.450;18.124;2022-09-12T02:16:18;8.05;;;5.20;;
10721;SDS011;5412;59.450;18.124;2022-09-12T02:18:51;5.80;;;4.90;;
10721;SDS011;5412;59.450;18.124;2022-09-12T02:21:20;7.82;;;4.53;;
10721;SDS011;5412;59.450;18.124;2022-09-12T02:23:49;5.00;;;3.95;;
10721;SDS011;5412;59.450;18.124;2022-09-12T02:27:04;5.60;;;4.25;;
10721;SDS011;5412;59.450;18.124;2022-09-12T02:29:15;5.63;;;4.00;;
10721;SDS011;5412;59.450;18.124;2022-09-12T02:39:34;8.55;;;3.67;;
10721;SDS011;5412;59.450;18.124;2022-09-12T02:42:00;6.13;;;4.35;;
10721;SDS011;5412;59.450;18.124;2022-09-12T02:44:28;5.55;;;4.88;;
10721;SDS011;5412;59.450;18.124;2022-09-12T02:47:03;5.63;;;4.28;;
10721;SDS011;5412;59.450;18.124;2022-09-12T02:49:34;6.63;;;4.28;;
10721;SDS011;5412;59.450;18.124;2022-09-12T02:52:00;5.25;;;4.20;;
10721;SDS011;5412;59.450;18.124;2022-09-12T02:54:26;5.80;;;4.68;;
10721;SDS011;5412;59.450;18.124;2022-09-12T02:56:53;8.02;;;4.38;;
10721;SDS011;5412;59.450;18.124;2022-09-12T02:59:19;8.07;;;4.85;;
10721;SDS011;5412;59.450;18.124;2022-09-12T03:02:03;6.75;;;4.95;;
10721;SDS011;5412;59.450;18.124;2022-09-12T03:26:46;9.60;;;5.47;;
10721;SDS011;5412;59.450;18.124;2022-09-12T03:29:35;7.50;;;5.25;;
10721;SDS011;5412;59.450;18.124;2022-09-12T03:32:02;9.88;;;4.90;;
10721;SDS011;5412;59.450;18.124;2022-09-12T03:34:28;6.47;;;5.03;;
10721;SDS011;5412;59.450;18.124;2022-09-12T03:36:54;8.40;;;5.55;;
10721;SDS011;5412;59.450;18.124;2022-09-12T03:39:20;5.88;;;5.00;;
10721;SDS011;5412;59.450;18.124;2022-09-12T03:41:48;7.00;;;5.32;;
10721;SDS011;5412;59.450;18.124;2022-09-12T03:44:15;6.43;;;5.10;;
10721;SDS011;5412;59.450;18.124;2022-09-12T03:46:41;6.30;;;5.10;;
10721;SDS011;5412;59.450;18.124;2022-09-12T03:49:07;7.70;;;5.75;;
10721;SDS011;5412;59.450;18.124;2022-09-12T03:51:33;5.75;;;5.20;;
10721;SDS011;5412;59.450;18.124;2022-09-12T03:53:58;11.15;;;4.90;;
10721;SDS011;5412;59.450;18.124;2022-09-12T03:56:24;7.93;;;5.47;;
10721;SDS011;5412;59.450;18.124;2022-09-12T03:58:50;7.53;;;5.75;;
10721;SDS011;5412;59.450;18.124;2022-09-12T04:01:16;9.60;;;5.60;;
10721;SDS011;5412;59.450;18.124;2022-09-12T04:03:44;7.53;;;5.72;;
10721;SDS011;5412;59.450;18.124;2022-09-12T04:06:11;10.63;;;5.68;;
10721;SDS011;5412;59.450;18.124;2022-09-12T04:08:39;8.18;;;6.38;;
10721;SDS011;5412;59.450;18.124;2022-09-12T04:11:10;14.38;;;5.78;;
10721;SDS011;5412;59.450;18.124;2022-09-12T04:13:38;7.57;;;5.85;;
10721;SDS011;5412;59.450;18.124;2022-09-12T04:16:06;6.57;;;5.15;;
10721;SDS011;5412;59.450;18.124;2022-09-12T04:18:33;9.30;;;5.65;;
10721;SDS011;5412;59.450;18.124;2022-09-12T04:21:03;9.65;;;6.35;;
10721;SDS011;5412;59.450;18.124;2022-09-12T04:23:30;8.57;;;5.63;;
10721;SDS011;5412;59.450;18.124;2022-09-12T04:25:57;7.15;;;4.75;;
10721;SDS011;5412;59.450;18.124;2022-09-12T04:28:24;5.22;;;4.72;;
10721;SDS011;5412;59.450;18.124;2022-09-12T04:30:50;6.97;;;5.10;;
10721;SDS011;5412;59.450;18.124;2022-09-12T04:33:16;7.25;;;4.53;;
10721;SDS011;5412;59.450;18.124;2022-09-12T04:35:42;5.50;;;4.88;;
10721;SDS011;5412;59.450;18.124;2022-09-12T04:38:09;5.70;;;4.78;;
10721;SDS011;5412;59.450;18.124;2022-09-12T04:40:35;9.05;;;5.15;;
10721;SDS011;5412;59.450;18.124;2022-09-12T04:43:01;7.57;;;5.18;;
10721;SDS011;5412;59.450;18.124;2022-09-12T04:45:27;5.00;;;4.50;;
10721;SDS011;5412;59.450;18.124;2022-09-12T04:47:53;5.90;;;4.30;;
10721;SDS011;5412;59.450;18.124;2022-09-12T04:50:19;6.68;;;4.35;;
10721;SDS011;5412;59.450;18.124;2022-09-12T04:52:48;4.43;;;3.67;;
10721;SDS011;5412;59.450;18.124;2022-09-12T04:55:17;5.93;;;4.53;;
10721;SDS011;5412;59.450;18.124;2022-09-12T04:57:44;5.78;;;4.13;;
10721;SDS011;5412;59.450;18.124;2022-09-12T05:00:10;4.50;;;4.10;;
10721;SDS011;5412;59.450;18.124;2022-09-12T05:02:42;8.27;;;4.00;;
10721;SDS011;5412;59.450;18.124;2022-09-12T05:05:08;6.35;;;4.28;;
10721;SDS011;5412;59.450;18.124;2022-09-12T05:07:35;5.47;;;4.15;;
10721;SDS011;5412;59.450;18.124;2022-09-12T05:10:01;4.07;;;3.40;;
10721;SDS011;5412;59.450;18.124;2022-09-12T05:12:28;4.63;;;3.83;;
10721;SDS011;5412;59.450;18.124;2022-09-12T05:14:55;4.25;;;3.60;;
10721;SDS011;5412;59.450;18.124;2022-09-12T05:17:20;3.95;;;3.50;;
10721;SDS011;5412;59.450;18.124;2022-09-12T05:19:46;6.07;;;3.72;;
10721;SDS011;5412;59.450;18.124;2022-09-12T05:22:12;4.85;;;3.90;;
10721;SDS011;5412;59.450;18.124;2022-09-12T05:24:38;4.20;;;3.67;;
10721;SDS011;5412;59.450;18.124;2022-09-12T05:27:07;7.43;;;4.35;;
10721;SDS011;5412;59.450;18.124;2022-09-12T05:29:33;8.23;;;3.97;;
10721;SDS011;5412;59.450;18.124;2022-09-12T05:32:00;4.18;;;3.42;;
10721;SDS011;5412;59.450;18.124;2022-09-12T05:34:26;4.93;;;3.92;;
10721;SDS011;5412;59.450;18.124;2022-09-12T05:36:52;6.55;;;4.10;;
10721;SDS011;5412;59.450;18.124;2022-09-12T05:39:17;5.22;;;3.97;;
10721;SDS011;5412;59.450;18.124;2022-09-12T05:41:43;5.00;;;4.50;;
10721;SDS011;5412;59.450;18.124;2022-09-12T05:44:10;6.90;;;4.50;;
10721;SDS011;5412;59.450;18.124;2022-09-12T05:46:39;8.20;;;4.35;;
10721;SDS011;5412;59.450;18.124;2022-09-12T05:49:10;6.95;;;4.65;;
10721;SDS011;5412;59.450;18.124;2022-09-12T05:51:38;5.30;;;4.63;;
10721;SDS011;5412;59.450;18.124;2022-09-12T05:54:06;6.70;;;4.63;;
10721;SDS011;5412;59.450;18.124;2022-09-12T05:56:36;5.60;;;4.22;;
10721;SDS011;5412;59.450;18.124;2022-09-12T05:59:05;5.93;;;4.60;;
10721;SDS011;5412;59.450;18.124;2022-09-12T06:01:32;4.90;;;4.40;;
10721;SDS011;5412;59.450;18.124;2022-09-12T06:03:59;7.68;;;4.40;;
10721;SDS011;5412;59.450;18.124;2022-09-12T06:06:27;4.78;;;3.85;;
10721;SDS011;5412;59.450;18.124;2022-09-12T06:08:55;10.07;;;4.82;;
10721;SDS011;5412;59.450;18.124;2022-09-12T06:11:24;4.15;;;3.65;;
10721;SDS011;5412;59.450;18.124;2022-09-12T06:13:51;4.80;;;4.03;;
10721;SDS011;5412;59.450;18.124;2022-09-12T06:16:18;5.40;;;4.03;;
10721;SDS011;5412;59.450;18.124;2022-09-12T06:18:56;7.97;;;4.15;;
10721;SDS011;5412;59.450;18.124;2022-09-12T06:21:23;5.72;;;4.55;;
10721;SDS011;5412;59.450;18.124;2022-09-12T06:23:51;4.78;;;3.90;;
10721;SDS011;5412;59.450;18.124;2022-09-12T06:26:21;6.75;;;3.90;;
10721;SDS011;5412;59.450;18.124;2022-09-12T06:28:49;5.18;;;3.63;;
10721;SDS011;5412;59.450;18.124;2022-09-12T06:31:16;4.82;;;3.67;;
10721;SDS011;5412;59.450;18.124;2022-09-12T06:33:45;4.57;;;3.72;;
10721;SDS011;5412;59.450;18.124;2022-09-12T06:36:16;4.05;;;3.28;;
10721;SDS011;5412;59.450;18.124;2022-09-12T06:38:43;5.50;;;3.20;;
10721;SDS011;5412;59.450;18.124;2022-09-12T06:41:12;6.15;;;3.25;;
10721;SDS011;5412;59.450;18.124;2022-09-12T06:43:39;3.35;;;2.88;;
10721;SDS011;5412;59.450;18.124;2022-09-12T06:46:05;3.42;;;3.10;;
10721;SDS011;5412;59.450;18.124;2022-09-12T06:48:32;4.78;;;3.28;;
10721;SDS011;5412;59.450;18.124;2022-09-12T06:51:05;4.63;;;3.30;;
10721;SDS011;5412;59.450;18.124;2022-09-12T06:53:34;3.75;;;3.30;;
10721;SDS011;5412;59.450;18.124;2022-09-12T06:56:03;3.38;;;2.97;;
10721;SDS011;5412;59.450;18.124;2022-09-12T06:58:30;5.38;;;2.90;;
10721;SDS011;5412;59.450;18.124;2022-09-12T07:01:04;3.22;;;2.85;;
10721;SDS011;5412;59.450;18.124;2022-09-12T07:03:42;4.90;;;2.92;;
10721;SDS011;5412;59.450;18.124;2022-09-12T07:06:13;8.27;;;3.05;;
10721;SDS011;5412;59.450;18.124;2022-09-12T07:08:40;3.25;;;2.83;;
10721;SDS011;5412;59.450;18.124;2022-09-12T07:13:49;4.05;;;2.60;;
10721;SDS011;5412;59.450;18.124;2022-09-12T07:16:16;4.80;;;2.70;;
10721;SDS011;5412;59.450;18.124;2022-09-12T07:18:42;3.30;;;2.53;;
10721;SDS011;5412;59.450;18.124;2022-09-12T07:21:10;3.80;;;3.00;;
10721;SDS011;5412;59.450;18.124;2022-09-12T07:23:37;5.03;;;2.70;;
10721;SDS011;5412;59.450;18.124;2022-09-12T07:26:06;4.38;;;2.67;;
10721;SDS011;5412;59.450;18.124;2022-09-12T07:28:32;3.45;;;2.47;;
10721;SDS011;5412;59.450;18.124;2022-09-12T07:31:06;5.18;;;2.72;;
10721;SDS011;5412;59.450;18.124;2022-09-12T07:33:36;3.60;;;2.55;;
10721;SDS011;5412;59.450;18.124;2022-09-12T07:36:04;5.95;;;2.38;;
10721;SDS011;5412;59.450;18.124;2022-09-12T07:38:31;3.38;;;2.60;;
10721;SDS011;5412;59.450;18.124;2022-09-12T07:40:57;4.40;;;2.60;;
10721;SDS011;5412;59.450;18.124;2022-09-12T07:43:23;3.85;;;2.63;;
10721;SDS011;5412;59.450;18.124;2022-09-12T07:45:53;5.18;;;2.47;;
10721;SDS011;5412;59.450;18.124;2022-09-12T07:48:20;7.97;;;2.50;;
10721;SDS011;5412;59.450;18.124;2022-09-12T07:50:46;6.30;;;2.22;;
10721;SDS011;5412;59.450;18.124;2022-09-12T07:53:11;4.68;;;2.50;;
10721;SDS011;5412;59.450;18.124;2022-09-12T07:55:37;8.45;;;2.60;;
10721;SDS011;5412;59.450;18.124;2022-09-12T07:58:03;2.50;;;2.22;;
10721;SDS011;5412;59.450;18.124;2022-09-12T08:00:29;2.88;;;2.00;;
10721;SDS011;5412;59.450;18.124;2022-09-12T08:03:00;4.90;;;1.80;;
10721;SDS011;5412;59.450;18.124;2022-09-12T08:05:26;2.95;;;1.92;;
10721;SDS011;5412;59.450;18.124;2022-09-12T08:07:54;4.28;;;2.25;;
10721;SDS011;5412;59.450;18.124;2022-09-12T08:10:19;4.28;;;2.65;;
10721;SDS011;5412;59.450;18.124;2022-09-12T08:12:45;4.07;;;2.72;;
10721;SDS011;5412;59.450;18.124;2022-09-12T08:15:11;4.75;;;2.75;;
10721;SDS011;5412;59.450;18.124;2022-09-12T08:17:36;12.73;;;3.35;;
10721;SDS011;5412;59.450;18.124;2022-09-12T08:20:02;9.65;;;3.03;;
10721;SDS011;5412;59.450;18.124;2022-09-12T08:22:29;3.83;;;2.60;;
10721;SDS011;5412;59.450;18.124;2022-09-12T08:24:55;6.88;;;2.10;;
10721;SDS011;5412;59.450;18.124;2022-09-12T08:27:21;4.47;;;1.88;;
10721;SDS011;5412;59.450;18.124;2022-09-12T08:29:46;2.50;;;2.17;;
10721;SDS011;5412;59.450;18.124;2022-09-12T08:32:12;3.10;;;1.88;;
10721;SDS011;5412;59.450;18.124;2022-09-12T08:34:38;5.95;;;2.70;;
10721;SDS011;5412;59.450;18.124;2022-09-12T08:37:03;3.67;;;2.63;;
10721;SDS011;5412;59.450;18.124;2022-09-12T08:39:29;2.92;;;2.30;;
10721;SDS011;5412;59.450;18.124;2022-09-12T08:42:00;2.17;;;1.65;;
10721;SDS011;5412;59.450;18.124;2022-09-12T08:44:30;2.40;;;2.08;;
10721;SDS011;5412;59.450;18.124;2022-09-12T08:52:23;4.20;;;2.45;;
10721;SDS011;5412;59.450;18.124;2022-09-12T08:54:50;6.40;;;2.15;;
10721;SDS011;5412;59.450;18.124;2022-09-12T08:57:16;3.20;;;2.25;;
10721;SDS011;5412;59.450;18.124;2022-09-12T08:59:43;4.22;;;1.98;;
10721;SDS011;5412;59.450;18.124;2022-09-12T09:05:00;6.97;;;2.53;;
10721;SDS011;5412;59.450;18.124;2022-09-12T09:07:53;10.32;;;2.70;;
10721;SDS011;5412;59.450;18.124;2022-09-12T09:10:47;3.72;;;2.53;;
10721;SDS011;5412;59.450;18.124;2022-09-12T09:13:49;3.97;;;2.60;;
10721;SDS011;5412;59.450;18.124;2022-09-12T09:16:53;5.45;;;2.38;;
10721;SDS011;5412;59.450;18.124;2022-09-12T09:19:31;2.80;;;1.98;;
10721;SDS011;5412;59.450;18.124;2022-09-12T09:22:06;4.45;;;2.00;;
10721;SDS011;5412;59.450;18.124;2022-09-12T09:24:38;2.65;;;1.90;;
10721;SDS011;5412;59.450;18.124;2022-09-12T09:27:25;4.00;;;2.05;;
10721;SDS011;5412;59.450;18.124;2022-09-12T09:29:59;3.80;;;2.60;;
10721;SDS011;5412;59.450;18.124;2022-09-12T09:32:30;2.08;;;1.88;;
10721;SDS011;5412;59.450;18.124;2022-09-12T09:35:23;4.43;;;2.00;;
10721;SDS011;5412;59.450;18.124;2022-09-12T09:43:19;9.75;;;2.28;;
10721;SDS011;5412;59.450;18.124;2022-09-12T09:45:48;3.95;;;2.20;;
10721;SDS011;5412;59.450;18.124;2022-09-12T09:48:21;2.05;;;1.50;;
10721;SDS011;5412;59.450;18.124;2022-09-12T09:50:49;4.63;;;1.95;;
10721;SDS011;5412;59.450;18.124;2022-09-12T09:53:37;3.47;;;1.90;;
10721;SDS011;5412;59.450;18.124;2022-09-12T09:56:12;6.55;;;2.10;;
10721;SDS011;5412;59.450;18.124;2022-09-12T09:58:51;2.05;;;1.65;;
10721;SDS011;5412;59.450;18.124;2022-09-12T10:01:17;4.20;;;1.70;;
10721;SDS011;5412;59.450;18.124;2022-09-12T10:09:03;1.98;;;1.40;;
10721;SDS011;5412;59.450;18.124;2022-09-12T10:11:38;2.70;;;1.52;;
10721;SDS011;5412;59.450;18.124;2022-09-12T10:14:21;4.68;;;1.80;;
10721;SDS011;5412;59.450;18.124;2022-09-12T10:17:03;4.80;;;1.80;;
10721;SDS011;5412;59.450;18.124;2022-09-12T10:25:58;2.95;;;1.42;;
10721;SDS011;5412;59.450;18.124;2022-09-12T10:29:01;3.03;;;1.50;;
10721;SDS011;5412;59.450;18.124;2022-09-12T10:31:26;2.13;;;1.50;;
10721;SDS011;5412;59.450;18.124;2022-09-12T10:33:58;2.35;;;1.83;;
10721;SDS011;5412;59.450;18.124;2022-09-12T10:36:25;3.92;;;1.48;;
10721;SDS011;5412;59.450;18.124;2022-09-12T10:39:03;3.90;;;1.80;;
10721;SDS011;5412;59.450;18.124;2022-09-12T10:41:36;3.03;;;1.80;;
10721;SDS011;5412;59.450;18.124;2022-09-12T10:44:13;2.03;;;1.58;;
10721;SDS011;5412;59.450;18.124;2022-09-12T10:46:52;1.73;;;1.60;;
10721;SDS011;5412;59.450;18.124;2022-09-12T10:51:55;2.90;;;1.60;;
10721;SDS011;5412;59.450;18.124;2022-09-12T10:54:24;1.70;;;1.60;;
10721;SDS011;5412;59.450;18.124;2022-09-12T10:57:17;1.70;;;1.38;;
10721;SDS011;5412;59.450;18.124;2022-09-12T10:59:57;3.38;;;1.90;;
10721;SDS011;5412;59.450;18.124;2022-09-12T11:25:48;2.28;;;1.40;;
10721;SDS011;5412;59.450;18.124;2022-09-12T11:33:57;2.80;;;1.80;;
10721;SDS011;5412;59.450;18.124;2022-09-12T11:36:35;3.85;;;1.88;;
10721;SDS011;5412;59.450;18.124;2022-09-12T11:39:11;4.38;;;1.60;;
10721;SDS011;5412;59.450;18.124;2022-09-12T11:41:39;3.72;;;1.63;;
10721;SDS011;5412;59.450;18.124;2022-09-12T11:46:41;2.10;;;1.55;;
10721;SDS011;5412;59.450;18.124;2022-09-12T11:54:39;2.45;;;1.58;;
10721;SDS011;5412;59.450;18.124;2022-09-12T11:57:37;2.00;;;1.80;;
10721;SDS011;5412;59.450;18.124;2022-09-12T12:00:17;2.63;;;1.52;;
10721;SDS011;5412;59.450;18.124;2022-09-12T12:08:04;2.88;;;1.58;;
10721;SDS011;5412;59.450;18.124;2022-09-12T12:13:05;4.75;;;1.58;;
10721;SDS011;5412;59.450;18.124;2022-09-12T12:15:44;2.63;;;1.40;;
10721;SDS011;5412;59.450;18.124;2022-09-12T12:18:22;3.13;;;1.40;;
10721;SDS011;5412;59.450;18.124;2022-09-12T12:20:50;5.13;;;1.52;;
10721;SDS011;5412;59.450;18.124;2022-09-12T12:25:56;1.40;;;1.30;;
10721;SDS011;5412;59.450;18.124;2022-09-12T12:31:14;4.55;;;1.73;;
10721;SDS011;5412;59.450;18.124;2022-09-12T12:36:27;2.47;;;1.75;;
10721;SDS011;5412;59.450;18.124;2022-09-12T12:41:59;4.35;;;1.60;;
10721;SDS011;5412;59.450;18.124;2022-09-12T12:49:48;2.42;;;1.58;;
10721;SDS011;5412;59.450;18.124;2022-09-12T12:52:21;2.47;;;1.42;;
10721;SDS011;5412;59.450;18.124;2022-09-12T12:54:49;3.08;;;1.85;;
10721;SDS011;5412;59.450;18.124;2022-09-12T13:02:40;2.20;;;1.73;;
10721;SDS011;5412;59.450;18.124;2022-09-12T13:05:18;2.75;;;1.45;;
10721;SDS011;5412;59.450;18.124;2022-09-12T13:07:45;2.40;;;1.50;;
10721;SDS011;5412;59.450;18.124;2022-09-12T13:10:27;7.90;;;1.58;;
10721;SDS011;5412;59.450;18.124;2022-09-12T13:12:56;2.80;;;1.45;;
10721;SDS011;5412;59.450;18.124;2022-09-12T13:18:02;4.07;;;1.60;;
10721;SDS011;5412;59.450;18.124;2022-09-12T13:20:50;10.77;;;2.63;;
10721;SDS011;5412;59.450;18.124;2022-09-12T13:23:29;2.53;;;1.73;;
10721;SDS011;5412;59.450;18.124;2022-09-12T13:25:57;4.40;;;1.63;;
10721;SDS011;5412;59.450;18.124;2022-09-12T13:28:25;2.47;;;1.73;;
10721;SDS011;5412;59.450;18.124;2022-09-12T13:33:27;5.85;;;2.05;;
10721;SDS011;5412;59.450;18.124;2022-09-12T13:44:27;4.38;;;1.50;;
10721;SDS011;5412;59.450;18.124;2022-09-12T13:46:58;3.22;;;1.50;;
10721;SDS011;5412;59.450;18.124;2022-09-12T13:49:29;5.00;;;1.90;;
10721;SDS011;5412;59.450;18.124;2022-09-12T13:52:02;3.75;;;1.80;;
10721;SDS011;5412;59.450;18.124;2022-09-12T13:54:33;2.13;;;1.60;;
10721;SDS011;5412;59.450;18.124;2022-09-12T13:57:02;3.63;;;2.10;;
10721;SDS011;5412;59.450;18.124;2022-09-12T13:59:36;3.38;;;1.67;;
10721;SDS011;5412;59.450;18.124;2022-09-12T14:02:20;1.50;;;1.40;;
10721;SDS011;5412;59.450;18.124;2022-09-12T14:04:47;2.30;;;1.73;;
10721;SDS011;5412;59.450;18.124;2022-09-12T14:07:48;2.22;;;1.60;;
10721;SDS011;5412;59.450;18.124;2022-09-12T14:10:41;5.30;;;1.88;;
10721;SDS011;5412;59.450;18.124;2022-09-12T14:15:47;1.98;;;1.55;;
10721;SDS011;5412;59.450;18.124;2022-09-12T14:18:27;1.73;;;1.50;;
10721;SDS011;5412;59.450;18.124;2022-09-12T14:20:58;6.80;;;1.50;;
10721;SDS011;5412;59.450;18.124;2022-09-12T14:23:41;1.95;;;1.38;;
10721;SDS011;5412;59.450;18.124;2022-09-12T14:26:12;2.45;;;1.10;;
10721;SDS011;5412;59.450;18.124;2022-09-12T14:28:41;1.45;;;1.35;;
10721;SDS011;5412;59.450;18.124;2022-09-12T14:33:52;2.25;;;1.33;;
10721;SDS011;5412;59.450;18.124;2022-09-12T14:38:55;2.33;;;1.50;;
10721;SDS011;5412;59.450;18.124;2022-09-12T14:41:27;1.65;;;1.38;;
10721;SDS011;5412;59.450;18.124;2022-09-12T14:44:00;2.25;;;1.48;;
10721;SDS011;5412;59.450;18.124;2022-09-12T14:46:30;2.88;;;1.60;;
10721;SDS011;5412;59.450;18.124;2022-09-12T14:48:58;8.25;;;1.55;;
10721;SDS011;5412;59.450;18.124;2022-09-12T14:51:31;2.45;;;1.30;;
10721;SDS011;5412;59.450;18.124;2022-09-12T14:54:00;1.45;;;1.33;;
10721;SDS011;5412;59.450;18.124;2022-09-12T14:56:40;2.60;;;1.52;;
10721;SDS011;5412;59.450;18.124;2022-09-12T15:07:40;3.15;;;1.30;;
10721;SDS011;5412;59.450;18.124;2022-09-12T15:12:56;4.65;;;1.45;;
10721;SDS011;5412;59.450;18.124;2022-09-12T15:15:34;5.55;;;1.95;;
10721;SDS011;5412;59.450;18.124;2022-09-12T15:18:00;2.30;;;1.50;;
10721;SDS011;5412;59.450;18.124;2022-09-12T15:20:26;4.28;;;1.60;;
10721;SDS011;5412;59.450;18.124;2022-09-12T15:22:52;2.30;;;1.52;;
10721;SDS011;5412;59.450;18.124;2022-09-12T15:25:18;1.95;;;1.60;;
10721;SDS011;5412;59.450;18.124;2022-09-12T15:27:44;1.83;;;1.60;;
10721;SDS011;5412;59.450;18.124;2022-09-12T15:30:11;3.83;;;1.55;;
10721;SDS011;5412;59.450;18.124;2022-09-12T15:32:38;2.67;;;1.50;;
10721;SDS011;5412;59.450;18.124;2022-09-12T15:35:11;2.38;;;1.55;;
10721;SDS011;5412;59.450;18.124;2022-09-12T15:37:43;2.47;;;1.30;;
10721;SDS011;5412;59.450;18.124;2022-09-12T15:40:12;5.50;;;1.70;;
10721;SDS011;5412;59.450;18.124;2022-09-12T15:42:38;3.42;;;1.70;;
10721;SDS011;5412;59.450;18.124;2022-09-12T15:47:56;2.30;;;1.80;;
10721;SDS011;5412;59.450;18.124;2022-09-12T15:50:22;2.72;;;1.52;;
10721;SDS011;5412;59.450;18.124;2022-09-12T15:52:48;5.03;;;1.77;;
10721;SDS011;5412;59.450;18.124;2022-09-12T15:55:25;3.05;;;1.83;;
10721;SDS011;5412;59.450;18.124;2022-09-12T15:57:53;1.48;;;1.20;;
10721;SDS011;5412;59.450;18.124;2022-09-12T16:00:19;3.90;;;1.83;;
10721;SDS011;5412;59.450;18.124;2022-09-12T16:02:46;2.60;;;1.52;;
10721;SDS011;5412;59.450;18.124;2022-09-12T16:05:14;6.07;;;1.38;;
10721;SDS011;5412;59.450;18.124;2022-09-12T16:07:43;2.08;;;1.60;;
10721;SDS011;5412;59.450;18.124;2022-09-12T16:10:16;4.32;;;1.70;;
10721;SDS011;5412;59.450;18.124;2022-09-12T16:12:44;10.80;;;1.65;;
10721;SDS011;5412;59.450;18.124;2022-09-12T16:15:14;1.65;;;1.40;;
10721;SDS011;5412;59.450;18.124;2022-09-12T16:17:41;3.63;;;1.70;;
10721;SDS011;5412;59.450;18.124;2022-09-12T16:20:08;3.70;;;1.77;;
10721;SDS011;5412;59.450;18.124;2022-09-12T16:22:34;2.88;;;1.60;;
10721;SDS011;5412;59.450;18.124;2022-09-12T16:24:59;2.17;;;1.50;;
10721;SDS011;5412;59.450;18.124;2022-09-12T16:27:25;2.35;;;1.70;;
10721;SDS011;5412;59.450;18.124;2022-09-12T16:29:51;2.50;;;1.80;;
10721;SDS011;5412;59.450;18.124;2022-09-12T16:32:16;3.47;;;1.92;;
10721;SDS011;5412;59.450;18.124;2022-09-12T16:34:42;4.18;;;1.48;;
10721;SDS011;5412;59.450;18.124;2022-09-12T16:37:08;3.20;;;1.73;;
10721;SDS011;5412;59.450;18.124;2022-09-12T16:39:34;2.88;;;1.70;;
10721;SDS011;5412;59.450;18.124;2022-09-12T16:41:59;5.32;;;1.70;;
10721;SDS011;5412;59.450;18.124;2022-09-12T16:44:25;4.07;;;1.83;;
10721;SDS011;5412;59.450;18.124;2022-09-12T16:46:51;6.47;;;2.15;;
10721;SDS011;5412;59.450;18.124;2022-09-12T16:49:17;2.38;;;1.75;;
10721;SDS011;5412;59.450;18.124;2022-09-12T16:51:43;3.15;;;1.70;;
10721;SDS011;5412;59.450;18.124;2022-09-12T16:54:12;1.80;;;1.65;;
10721;SDS011;5412;59.450;18.124;2022-09-12T16:56:38;3.22;;;1.58;;
10721;SDS011;5412;59.450;18.124;2022-09-12T16:59:05;3.28;;;1.83;;
10721;SDS011;5412;59.450;18.124;2022-09-12T17:01:30;3.15;;;1.50;;
10721;SDS011;5412;59.450;18.124;2022-09-12T17:03:58;3.75;;;1.92;;
10721;SDS011;5412;59.450;18.124;2022-09-12T17:06:24;5.28;;;1.95;;
10721;SDS011;5412;59.450;18.124;2022-09-12T17:08:51;4.55;;;2.00;;
10721;SDS011;5412;59.450;18.124;2022-09-12T17:11:20;6.13;;;2.10;;
10721;SDS011;5412;59.450;18.124;2022-09-12T17:13:56;2.28;;;1.73;;
10721;SDS011;5412;59.450;18.124;2022-09-12T17:16:24;4.53;;;1.80;;
10721;SDS011;5412;59.450;18.124;2022-09-12T17:18:50;2.92;;;1.75;;
10721;SDS011;5412;59.450;18.124;2022-09-12T17:21:16;11.25;;;2.33;;
10721;SDS011;5412;59.450;18.124;2022-09-12T17:23:43;3.63;;;1.98;;
10721;SDS011;5412;59.450;18.124;2022-09-12T17:26:09;2.80;;;1.70;;
10721;SDS011;5412;59.450;18.124;2022-09-12T17:28:35;2.10;;;1.88;;
10721;SDS011;5412;59.450;18.124;2022-09-12T17:31:02;1.85;;;1.67;;
10721;SDS011;5412;59.450;18.124;2022-09-12T17:33:29;3.72;;;1.70;;
10721;SDS011;5412;59.450;18.124;2022-09-12T17:35:59;5.00;;;2.58;;
10721;SDS011;5412;59.450;18.124;2022-09-12T17:38:26;2.72;;;2.03;;
10721;SDS011;5412;59.450;18.124;2022-09-12T17:40:55;3.03;;;1.90;;
10721;SDS011;5412;59.450;18.124;2022-09-12T17:43:20;4.50;;;2.28;;
10721;SDS011;5412;59.450;18.124;2022-09-12T17:45:49;2.30;;;2.00;;
10721;SDS011;5412;59.450;18.124;2022-09-12T17:48:19;2.67;;;1.95;;
10721;SDS011;5412;59.450;18.124;2022-09-12T17:50:45;2.53;;;2.00;;
10721;SDS011;5412;59.450;18.124;2022-09-12T17:53:11;2.03;;;1.70;;
10721;SDS011;5412;59.450;18.124;2022-09-12T17:55:37;4.25;;;2.30;;
10721;SDS011;5412;59.450;18.124;2022-09-12T17:58:03;3.17;;;2.33;;
10721;SDS011;5412;59.450;18.124;2022-09-12T18:00:29;4.57;;;1.90;;
10721;SDS011;5412;59.450;18.124;2022-09-12T18:03:14;5.10;;;2.47;;
10721;SDS011;5412;59.450;18.124;2022-09-12T18:05:44;4.45;;;1.83;;
10721;SDS011;5412;59.450;18.124;2022-09-12T18:08:15;3.08;;;2.03;;
10721;SDS011;5412;59.450;18.124;2022-09-12T18:10:41;2.22;;;1.80;;
10721;SDS011;5412;59.450;18.124;2022-09-12T18:13:07;4.32;;;2.22;;
10721;SDS011;5412;59.450;18.124;2022-09-12T18:15:33;3.80;;;1.90;;
10721;SDS011;5412;59.450;18.124;2022-09-12T18:17:59;5.03;;;2.15;;
10721;SDS011;5412;59.450;18.124;2022-09-12T18:20:25;2.97;;;2.00;;
10721;SDS011;5412;59.450;18.124;2022-09-12T18:22:51;2.75;;;2.20;;